sensor_id;sensor_type;location;lat;lon;timestamp;temperature;humidity
59881;DHT22;45751;51.380;10.326;2023-04-29T00:01:19;11.50;99.90
59881;DHT22;45751;51.380;10.326;2023-04-29T00:03:46;11.60;99.90
59881;DHT22;45751;51.380;10.326;2023-04-29T00:06:14;11.60;99.90
59881;DHT22;45751;51.380;10.326;2023-04-29T00:08:42;11.50;99.90
59881;DHT22;45751;51.380;10.326;2023-04-29T00:11:09;11.50;99.90
59881;DHT22;45751;51.380;10.326;2023-04-29T00:13:37;11.50;99.90
59881;DHT22;45751;51.380;10.326;2023-04-29T00:16:06;11.50;99.90
59881;DHT22;45751;51.380;10.326;2023-04-29T00:18:34;11.50;99.90
59881;DHT22;45751;51.380;10.326;2023-04-29T00:21:02;11.50;99.90
59881;DHT22;45751;51.380;10.326;2023-04-29T00:23:32;11.50;99.90
59881;DHT22;45751;51.380;10.326;2023-04-29T00:25:59;11.50;99.90
59881;DHT22;45751;51.380;10.326;2023-04-29T00:28:26;11.50;99.90
59881;DHT22;45751;51.380;10.326;2023-04-29T00:30:53;11.60;99.90
59881;DHT22;45751;51.380;10.326;2023-04-29T00:33:21;11.50;99.90
59881;DHT22;45751;51.380;10.326;2023-04-29T00:35:49;11.50;99.90
59881;DHT22;45751;51.380;10.326;2023-04-29T00:38:16;11.60;99.90
59881;DHT22;45751;51.380;10.326;2023-04-29T00:40:43;11.50;99.90
59881;DHT22;45751;51.380;10.326;2023-04-29T00:43:10;11.60;99.90
59881;DHT22;45751;51.380;10.326;2023-04-29T00:45:37;11.60;99.90
59881;DHT22;45751;51.380;10.326;2023-04-29T00:48:04;11.60;99.90
59881;DHT22;45751;51.380;10.326;2023-04-29T00:50:31;11.60;99.90
59881;DHT22;45751;51.380;10.326;2023-04-29T00:52:59;11.60;99.90
59881;DHT22;45751;51.380;10.326;2023-04-29T00:55:27;11.60;99.90
59881;DHT22;45751;51.380;10.326;2023-04-29T00:57:54;11.60;99.90
59881;DHT22;45751;51.380;10.326;2023-04-29T01:00:22;11.60;99.90
59881;DHT22;45751;51.380;10.326;2023-04-29T01:02:52;11.50;99.90
59881;DHT22;45751;51.380;10.326;2023-04-29T01:05:23;11.60;99.90
59881;DHT22;45751;51.380;10.326;2023-04-29T01:10:28;11.60;99.90
59881;DHT22;45751;51.380;10.326;2023-04-29T01:13:17;11.60;99.90
59881;DHT22;45751;51.380;10.326;2023-04-29T01:16:01;11.40;99.90
59881;DHT22;45751;51.380;10.326;2023-04-29T01:18:40;11.50;99.90
59881;DHT22;45751;51.380;10.326;2023-04-29T01:21:10;11.50;99.90
59881;DHT22;45751;51.380;10.326;2023-04-29T01:23:37;11.50;99.90
59881;DHT22;45751;51.380;10.326;2023-04-29T01:26:04;11.50;99.90
59881;DHT22;45751;51.380;10.326;2023-04-29T01:28:55;11.40;99.90
59881;DHT22;45751;51.380;10.326;2023-04-29T01:31:43;11.40;99.90
59881;DHT22;45751;51.380;10.326;2023-04-29T01:34:22;11.40;99.90
59881;DHT22;45751;51.380;10.326;2023-04-29T01:39:36;11.40;99.90
59881;DHT22;45751;51.380;10.326;2023-04-29T01:44:46;11.10;99.90
59881;DHT22;45751;51.380;10.326;2023-04-29T01:47:18;11.30;99.90
59881;DHT22;45751;51.380;10.326;2023-04-29T01:49:49;11.30;99.90
59881;DHT22;45751;51.380;10.326;2023-04-29T01:52:17;11.20;99.90
59881;DHT22;45751;51.380;10.326;2023-04-29T01:54:51;11.30;99.90
59881;DHT22;45751;51.380;10.326;2023-04-29T01:57:19;11.20;99.90
59881;DHT22;45751;51.380;10.326;2023-04-29T02:00:09;11.20;99.90
59881;DHT22;45751;51.380;10.326;2023-04-29T02:02:44;11.20;99.90
59881;DHT22;45751;51.380;10.326;2023-04-29T02:05:22;11.20;99.90
59881;DHT22;45751;51.380;10.326;2023-04-29T02:07:54;11.20;99.90
59881;DHT22;45751;51.380;10.326;2023-04-29T02:10:21;11.20;99.90
59881;DHT22;45751;51.380;10.326;2023-04-29T02:12:53;11.20;99.90
59881;DHT22;45751;51.380;10.326;2023-04-29T02:15:20;11.20;99.90
59881;DHT22;45751;51.380;10.326;2023-04-29T02:17:47;11.10;99.90
59881;DHT22;45751;51.380;10.326;2023-04-29T02:20:14;11.10;99.90
59881;DHT22;45751;51.380;10.326;2023-04-29T02:22:41;11.10;99.90
59881;DHT22;45751;51.380;10.326;2023-04-29T02:25:10;11.10;99.90
59881;DHT22;45751;51.380;10.326;2023-04-29T02:27:37;11.10;99.90
59881;DHT22;45751;51.380;10.326;2023-04-29T02:30:05;11.10;99.90
59881;DHT22;45751;51.380;10.326;2023-04-29T02:32:32;11.10;99.90
59881;DHT22;45751;51.380;10.326;2023-04-29T02:34:59;11.10;99.90
59881;DHT22;45751;51.380;10.326;2023-04-29T02:37:27;11.00;99.90
59881;DHT22;45751;51.380;10.326;2023-04-29T02:39:54;11.00;99.90
59881;DHT22;45751;51.380;10.326;2023-04-29T02:42:21;11.00;99.90
59881;DHT22;45751;51.380;10.326;2023-04-29T02:44:48;11.00;99.90
59881;DHT22;45751;51.380;10.326;2023-04-29T02:47:15;11.00;99.90
59881;DHT22;45751;51.380;10.326;2023-04-29T02:49:43;11.00;99.90
59881;DHT22;45751;51.380;10.326;2023-04-29T02:52:10;10.90;99.90
59881;DHT22;45751;51.380;10.326;2023-04-29T02:54:38;11.00;99.90
59881;DHT22;45751;51.380;10.326;2023-04-29T02:57:05;11.00;99.90
59881;DHT22;45751;51.380;10.326;2023-04-29T02:59:33;10.90;99.90
59881;DHT22;45751;51.380;10.326;2023-04-29T03:02:00;10.90;99.90
59881;DHT22;45751;51.380;10.326;2023-04-29T03:04:27;10.90;99.90
59881;DHT22;45751;51.380;10.326;2023-04-29T03:06:55;10.90;99.90
59881;DHT22;45751;51.380;10.326;2023-04-29T03:09:25;10.90;99.90
59881;DHT22;45751;51.380;10.326;2023-04-29T03:11:52;10.90;99.90
59881;DHT22;45751;51.380;10.326;2023-04-29T03:14:19;10.90;99.90
59881;DHT22;45751;51.380;10.326;2023-04-29T03:16:46;10.90;99.90
59881;DHT22;45751;51.380;10.326;2023-04-29T03:19:14;10.90;99.90
59881;DHT22;45751;51.380;10.326;2023-04-29T03:21:41;10.90;99.90
59881;DHT22;45751;51.380;10.326;2023-04-29T03:24:07;10.90;99.90
59881;DHT22;45751;51.380;10.326;2023-04-29T03:26:35;10.90;99.90
59881;DHT22;45751;51.380;10.326;2023-04-29T03:29:03;10.80;99.90
59881;DHT22;45751;51.380;10.326;2023-04-29T03:31:30;10.80;99.90
59881;DHT22;45751;51.380;10.326;2023-04-29T03:33:57;10.80;99.90
59881;DHT22;45751;51.380;10.326;2023-04-29T03:36:24;10.80;99.90
59881;DHT22;45751;51.380;10.326;2023-04-29T03:39:04;10.80;99.90
59881;DHT22;45751;51.380;10.326;2023-04-29T03:41:31;10.80;99.90
59881;DHT22;45751;51.380;10.326;2023-04-29T03:43:58;10.80;99.90
59881;DHT22;45751;51.380;10.326;2023-04-29T03:46:28;10.70;99.90
59881;DHT22;45751;51.380;10.326;2023-04-29T03:48:55;10.80;99.90
59881;DHT22;45751;51.380;10.326;2023-04-29T03:51:24;10.80;99.90
59881;DHT22;45751;51.380;10.326;2023-04-29T03:53:56;10.70;99.90
59881;DHT22;45751;51.380;10.326;2023-04-29T03:56:24;10.80;99.90
59881;DHT22;45751;51.380;10.326;2023-04-29T03:58:51;10.70;99.90
59881;DHT22;45751;51.380;10.326;2023-04-29T04:01:20;10.70;99.90
59881;DHT22;45751;51.380;10.326;2023-04-29T04:03:47;10.70;99.90
59881;DHT22;45751;51.380;10.326;2023-04-29T04:06:15;10.70;99.90
59881;DHT22;45751;51.380;10.326;2023-04-29T04:08:42;10.70;99.90
59881;DHT22;45751;51.380;10.326;2023-04-29T04:11:17;10.70;99.90
59881;DHT22;45751;51.380;10.326;2023-04-29T04:13:48;10.60;99.90
59881;DHT22;45751;51.380;10.326;2023-04-29T04:16:16;10.70;99.90
59881;DHT22;45751;51.380;10.326;2023-04-29T04:18:44;10.60;99.90
59881;DHT22;45751;51.380;10.326;2023-04-29T04:21:11;10.60;99.90
59881;DHT22;45751;51.380;10.326;2023-04-29T04:23:41;10.60;99.90
59881;DHT22;45751;51.380;10.326;2023-04-29T04:26:12;10.70;99.90
59881;DHT22;45751;51.380;10.326;2023-04-29T04:28:51;10.70;99.90
59881;DHT22;45751;51.380;10.326;2023-04-29T04:31:26;10.60;99.90
59881;DHT22;45751;51.380;10.326;2023-04-29T04:33:54;10.60;99.90
59881;DHT22;45751;51.380;10.326;2023-04-29T04:36:22;10.60;99.90
59881;DHT22;45751;51.380;10.326;2023-04-29T04:38:49;10.60;99.90
59881;DHT22;45751;51.380;10.326;2023-04-29T04:41:16;10.60;99.90
59881;DHT22;45751;51.380;10.326;2023-04-29T04:43:45;10.60;99.90
59881;DHT22;45751;51.380;10.326;2023-04-29T04:46:31;10.50;99.90
59881;DHT22;45751;51.380;10.326;2023-04-29T04:49:11;10.50;99.90
59881;DHT22;45751;51.380;10.326;2023-04-29T04:51:44;10.40;99.90
59881;DHT22;45751;51.380;10.326;2023-04-29T04:54:12;10.30;99.90
59881;DHT22;45751;51.380;10.326;2023-04-29T04:56:39;10.30;99.90
59881;DHT22;45751;51.380;10.326;2023-04-29T04:59:06;10.30;99.90
59881;DHT22;45751;51.380;10.326;2023-04-29T05:01:35;10.30;99.90
59881;DHT22;45751;51.380;10.326;2023-04-29T05:04:03;10.20;99.90
59881;DHT22;45751;51.380;10.326;2023-04-29T05:06:30;10.20;99.90
59881;DHT22;45751;51.380;10.326;2023-04-29T05:08:57;10.20;99.90
59881;DHT22;45751;51.380;10.326;2023-04-29T05:11:24;10.20;99.90
59881;DHT22;45751;51.380;10.326;2023-04-29T05:14:06;10.20;99.90
59881;DHT22;45751;51.380;10.326;2023-04-29T05:16:33;10.20;99.90
59881;DHT22;45751;51.380;10.326;2023-04-29T05:19:01;10.20;99.90
59881;DHT22;45751;51.380;10.326;2023-04-29T05:21:31;10.20;99.90
59881;DHT22;45751;51.380;10.326;2023-04-29T05:23:59;10.20;99.90
59881;DHT22;45751;51.380;10.326;2023-04-29T05:26:26;10.20;99.90
59881;DHT22;45751;51.380;10.326;2023-04-29T05:28:57;10.20;99.90
59881;DHT22;45751;51.380;10.326;2023-04-29T05:31:25;10.10;99.90
59881;DHT22;45751;51.380;10.326;2023-04-29T05:33:55;10.10;99.90
59881;DHT22;45751;51.380;10.326;2023-04-29T05:36:23;10.10;99.90
59881;DHT22;45751;51.380;10.326;2023-04-29T05:38:50;10.00;99.90
59881;DHT22;45751;51.380;10.326;2023-04-29T05:41:17;10.10;99.90
59881;DHT22;45751;51.380;10.326;2023-04-29T05:44:00;10.20;99.90
59881;DHT22;45751;51.380;10.326;2023-04-29T05:46:30;10.10;99.90
59881;DHT22;45751;51.380;10.326;2023-04-29T05:48:57;10.10;99.90
59881;DHT22;45751;51.380;10.326;2023-04-29T05:51:24;10.10;99.90
59881;DHT22;45751;51.380;10.326;2023-04-29T05:53:51;10.10;99.90
59881;DHT22;45751;51.380;10.326;2023-04-29T05:56:18;10.10;99.90
59881;DHT22;45751;51.380;10.326;2023-04-29T05:58:45;10.10;99.90
59881;DHT22;45751;51.380;10.326;2023-04-29T06:01:12;10.10;99.90
59881;DHT22;45751;51.380;10.326;2023-04-29T06:03:39;10.10;99.90
59881;DHT22;45751;51.380;10.326;2023-04-29T06:06:26;10.00;99.90
59881;DHT22;45751;51.380;10.326;2023-04-29T06:09:11;10.10;99.90
59881;DHT22;45751;51.380;10.326;2023-04-29T06:11:53;10.10;99.90
59881;DHT22;45751;51.380;10.326;2023-04-29T06:14:20;10.10;99.90
59881;DHT22;45751;51.380;10.326;2023-04-29T06:16:47;10.10;99.90
59881;DHT22;45751;51.380;10.326;2023-04-29T06:19:15;10.00;99.90
59881;DHT22;45751;51.380;10.326;2023-04-29T06:21:42;10.10;99.90
59881;DHT22;45751;51.380;10.326;2023-04-29T06:24:09;10.10;99.90
59881;DHT22;45751;51.380;10.326;2023-04-29T06:26:36;10.00;99.90
59881;DHT22;45751;51.380;10.326;2023-04-29T06:29:03;10.10;99.90
59881;DHT22;45751;51.380;10.326;2023-04-29T06:31:30;10.00;99.90
59881;DHT22;45751;51.380;10.326;2023-04-29T06:34:01;10.00;99.90
59881;DHT22;45751;51.380;10.326;2023-04-29T06:36:29;10.00;99.90
59881;DHT22;45751;51.380;10.326;2023-04-29T06:39:04;10.10;99.90
59881;DHT22;45751;51.380;10.326;2023-04-29T06:42:09;10.00;99.90
59881;DHT22;45751;51.380;10.326;2023-04-29T06:44:48;10.10;99.90
59881;DHT22;45751;51.380;10.326;2023-04-29T06:47:38;9.90;99.90
59881;DHT22;45751;51.380;10.326;2023-04-29T06:50:10;10.00;99.90
59881;DHT22;45751;51.380;10.326;2023-04-29T06:52:37;10.00;99.90
59881;DHT22;45751;51.380;10.326;2023-04-29T06:55:04;10.00;99.90
59881;DHT22;45751;51.380;10.326;2023-04-29T06:57:31;10.00;99.90
59881;DHT22;45751;51.380;10.326;2023-04-29T06:59:58;10.00;99.90
59881;DHT22;45751;51.380;10.326;2023-04-29T07:02:25;10.00;99.90
59881;DHT22;45751;51.380;10.326;2023-04-29T07:04:52;10.00;99.90
59881;DHT22;45751;51.380;10.326;2023-04-29T07:07:19;10.00;99.90
59881;DHT22;45751;51.380;10.326;2023-04-29T07:09:46;10.00;99.90
59881;DHT22;45751;51.380;10.326;2023-04-29T07:12:14;10.00;99.90
59881;DHT22;45751;51.380;10.326;2023-04-29T07:14:41;10.00;99.90
59881;DHT22;45751;51.380;10.326;2023-04-29T07:17:08;10.10;99.90
59881;DHT22;45751;51.380;10.326;2023-04-29T07:19:36;9.90;99.90
59881;DHT22;45751;51.380;10.326;2023-04-29T07:22:03;10.00;99.90
59881;DHT22;45751;51.380;10.326;2023-04-29T07:24:30;10.10;99.90
59881;DHT22;45751;51.380;10.326;2023-04-29T07:26:57;10.10;99.90
59881;DHT22;45751;51.380;10.326;2023-04-29T07:29:24;10.10;99.90
59881;DHT22;45751;51.380;10.326;2023-04-29T07:31:51;10.10;99.90
59881;DHT22;45751;51.380;10.326;2023-04-29T07:34:18;10.10;99.90
59881;DHT22;45751;51.380;10.326;2023-04-29T07:36:45;10.10;99.90
59881;DHT22;45751;51.380;10.326;2023-04-29T07:39:14;10.20;99.90
59881;DHT22;45751;51.380;10.326;2023-04-29T07:41:44;10.20;99.90
59881;DHT22;45751;51.380;10.326;2023-04-29T07:44:11;10.30;99.90
59881;DHT22;45751;51.380;10.326;2023-04-29T07:46:38;10.30;99.90
59881;DHT22;45751;51.380;10.326;2023-04-29T07:49:05;10.30;99.90
59881;DHT22;45751;51.380;10.326;2023-04-29T07:51:32;10.30;99.90
59881;DHT22;45751;51.380;10.326;2023-04-29T07:54:00;10.30;99.90
59881;DHT22;45751;51.380;10.326;2023-04-29T07:56:26;10.20;99.90
59881;DHT22;45751;51.380;10.326;2023-04-29T07:58:53;10.20;99.90
59881;DHT22;45751;51.380;10.326;2023-04-29T08:01:20;10.20;99.90
59881;DHT22;45751;51.380;10.326;2023-04-29T08:03:47;10.20;99.90
59881;DHT22;45751;51.380;10.326;2023-04-29T08:06:17;10.20;99.90
59881;DHT22;45751;51.380;10.326;2023-04-29T08:08:47;10.20;99.90
59881;DHT22;45751;51.380;10.326;2023-04-29T08:11:18;10.20;99.90
59881;DHT22;45751;51.380;10.326;2023-04-29T08:13:45;10.20;99.90
59881;DHT22;45751;51.380;10.326;2023-04-29T08:16:12;10.20;99.90
59881;DHT22;45751;51.380;10.326;2023-04-29T08:18:40;10.20;99.90
59881;DHT22;45751;51.380;10.326;2023-04-29T08:21:07;10.20;99.90
59881;DHT22;45751;51.380;10.326;2023-04-29T08:23:38;10.20;99.90
59881;DHT22;45751;51.380;10.326;2023-04-29T08:26:05;10.20;99.90
59881;DHT22;45751;51.380;10.326;2023-04-29T08:28:32;10.20;99.90
59881;DHT22;45751;51.380;10.326;2023-04-29T08:30:59;10.20;99.90
59881;DHT22;45751;51.380;10.326;2023-04-29T08:33:26;10.20;99.90
59881;DHT22;45751;51.380;10.326;2023-04-29T08:35:59;10.20;99.90
59881;DHT22;45751;51.380;10.326;2023-04-29T08:38:27;10.20;99.90
59881;DHT22;45751;51.380;10.326;2023-04-29T08:40:53;10.20;99.90
59881;DHT22;45751;51.380;10.326;2023-04-29T08:43:22;10.20;99.90
59881;DHT22;45751;51.380;10.326;2023-04-29T08:45:49;10.30;99.90
59881;DHT22;45751;51.380;10.326;2023-04-29T08:48:16;10.20;99.90
59881;DHT22;45751;51.380;10.326;2023-04-29T08:50:44;10.20;99.90
59881;DHT22;45751;51.380;10.326;2023-04-29T08:53:13;10.30;99.90
59881;DHT22;45751;51.380;10.326;2023-04-29T08:55:46;10.30;99.90
59881;DHT22;45751;51.380;10.326;2023-04-29T08:58:14;10.30;99.90
59881;DHT22;45751;51.380;10.326;2023-04-29T09:00:42;10.30;99.90
59881;DHT22;45751;51.380;10.326;2023-04-29T09:06:14;10.40;99.90
59881;DHT22;45751;51.380;10.326;2023-04-29T09:08:42;10.30;99.90
59881;DHT22;45751;51.380;10.326;2023-04-29T09:11:09;10.30;99.90
59881;DHT22;45751;51.380;10.326;2023-04-29T09:13:38;10.20;99.90
59881;DHT22;45751;51.380;10.326;2023-04-29T09:16:10;10.30;99.90
59881;DHT22;45751;51.380;10.326;2023-04-29T09:18:46;10.30;99.90
59881;DHT22;45751;51.380;10.326;2023-04-29T09:21:19;10.20;99.90
59881;DHT22;45751;51.380;10.326;2023-04-29T09:23:50;10.20;99.90
59881;DHT22;45751;51.380;10.326;2023-04-29T09:26:18;10.20;99.90
59881;DHT22;45751;51.380;10.326;2023-04-29T09:28:45;10.20;99.90
59881;DHT22;45751;51.380;10.326;2023-04-29T09:31:13;10.10;99.90
59881;DHT22;45751;51.380;10.326;2023-04-29T09:33:51;10.20;99.90
59881;DHT22;45751;51.380;10.326;2023-04-29T09:39:09;10.20;99.90
59881;DHT22;45751;51.380;10.326;2023-04-29T09:42:00;10.10;99.90
59881;DHT22;45751;51.380;10.326;2023-04-29T09:44:30;10.10;99.90
59881;DHT22;45751;51.380;10.326;2023-04-29T09:47:03;10.20;99.90
59881;DHT22;45751;51.380;10.326;2023-04-29T09:49:33;10.20;99.90
59881;DHT22;45751;51.380;10.326;2023-04-29T09:54:35;10.10;99.90
59881;DHT22;45751;51.380;10.326;2023-04-29T09:57:03;10.10;99.90
59881;DHT22;45751;51.380;10.326;2023-04-29T09:59:35;10.00;99.90
59881;DHT22;45751;51.380;10.326;2023-04-29T10:02:09;10.00;99.90
59881;DHT22;45751;51.380;10.326;2023-04-29T10:04:41;10.00;99.90
59881;DHT22;45751;51.380;10.326;2023-04-29T10:07:13;10.00;99.90
59881;DHT22;45751;51.380;10.326;2023-04-29T10:09:43;9.90;99.90
59881;DHT22;45751;51.380;10.326;2023-04-29T10:12:15;10.00;99.90
59881;DHT22;45751;51.380;10.326;2023-04-29T10:15:00;9.90;99.90
59881;DHT22;45751;51.380;10.326;2023-04-29T10:17:36;10.00;99.90
59881;DHT22;45751;51.380;10.326;2023-04-29T10:20:08;10.00;99.90
59881;DHT22;45751;51.380;10.326;2023-04-29T10:22:45;10.00;99.90
59881;DHT22;45751;51.380;10.326;2023-04-29T10:25:15;10.00;99.90
59881;DHT22;45751;51.380;10.326;2023-04-29T10:27:43;10.00;99.90
59881;DHT22;45751;51.380;10.326;2023-04-29T10:30:14;10.10;99.90
59881;DHT22;45751;51.380;10.326;2023-04-29T10:32:46;10.10;99.90
59881;DHT22;45751;51.380;10.326;2023-04-29T10:35:19;10.10;99.90
59881;DHT22;45751;51.380;10.326;2023-04-29T10:37:49;10.10;99.90
59881;DHT22;45751;51.380;10.326;2023-04-29T10:40:44;10.10;99.90
59881;DHT22;45751;51.380;10.326;2023-04-29T10:43:22;10.10;99.90
59881;DHT22;45751;51.380;10.326;2023-04-29T10:48:43;10.20;99.90
59881;DHT22;45751;51.380;10.326;2023-04-29T10:51:10;10.10;99.90
59881;DHT22;45751;51.380;10.326;2023-04-29T10:53:57;10.20;99.90
59881;DHT22;45751;51.380;10.326;2023-04-29T10:56:52;10.20;99.90
59881;DHT22;45751;51.380;10.326;2023-04-29T11:01:59;10.30;99.90
59881;DHT22;45751;51.380;10.326;2023-04-29T11:04:26;10.20;99.90
59881;DHT22;45751;51.380;10.326;2023-04-29T11:06:54;10.20;99.90
59881;DHT22;45751;51.380;10.326;2023-04-29T11:09:26;10.20;99.90
59881;DHT22;45751;51.380;10.326;2023-04-29T11:11:58;10.30;99.90
59881;DHT22;45751;51.380;10.326;2023-04-29T11:14:49;10.40;99.90
59881;DHT22;45751;51.380;10.326;2023-04-29T11:17:18;10.50;99.90
59881;DHT22;45751;51.380;10.326;2023-04-29T11:19:48;10.60;99.90
59881;DHT22;45751;51.380;10.326;2023-04-29T11:25:02;10.80;99.90
59881;DHT22;45751;51.380;10.326;2023-04-29T11:27:32;10.80;99.90
59881;DHT22;45751;51.380;10.326;2023-04-29T11:30:00;10.80;99.90
59881;DHT22;45751;51.380;10.326;2023-04-29T11:32:28;10.70;99.90
59881;DHT22;45751;51.380;10.326;2023-04-29T11:35:15;10.80;99.90
59881;DHT22;45751;51.380;10.326;2023-04-29T11:37:44;10.90;99.90
59881;DHT22;45751;51.380;10.326;2023-04-29T11:40:12;10.90;98.50
59881;DHT22;45751;51.380;10.326;2023-04-29T11:42:48;10.90;98.80
59881;DHT22;45751;51.380;10.326;2023-04-29T11:45:19;10.90;98.00
59881;DHT22;45751;51.380;10.326;2023-04-29T11:47:47;10.90;98.40
59881;DHT22;45751;51.380;10.326;2023-04-29T11:50:16;10.90;99.20
59881;DHT22;45751;51.380;10.326;2023-04-29T11:52:46;10.90;98.80
59881;DHT22;45751;51.380;10.326;2023-04-29T11:55:13;10.90;99.10
59881;DHT22;45751;51.380;10.326;2023-04-29T11:57:40;10.90;98.70
59881;DHT22;45751;51.380;10.326;2023-04-29T12:00:09;11.00;96.90
59881;DHT22;45751;51.380;10.326;2023-04-29T12:02:38;11.00;97.00
59881;DHT22;45751;51.380;10.326;2023-04-29T12:05:06;11.00;97.70
59881;DHT22;45751;51.380;10.326;2023-04-29T12:07:34;10.90;97.60
59881;DHT22;45751;51.380;10.326;2023-04-29T12:10:02;10.90;97.60
59881;DHT22;45751;51.380;10.326;2023-04-29T12:12:33;10.90;97.30
59881;DHT22;45751;51.380;10.326;2023-04-29T12:15:02;10.90;97.50
59881;DHT22;45751;51.380;10.326;2023-04-29T12:17:31;10.80;97.80
59881;DHT22;45751;51.380;10.326;2023-04-29T12:19:58;10.80;97.40
59881;DHT22;45751;51.380;10.326;2023-04-29T12:22:31;10.80;97.50
59881;DHT22;45751;51.380;10.326;2023-04-29T12:24:58;10.80;97.50
59881;DHT22;45751;51.380;10.326;2023-04-29T12:27:26;10.70;98.10
59881;DHT22;45751;51.380;10.326;2023-04-29T12:29:53;10.70;98.10
59881;DHT22;45751;51.380;10.326;2023-04-29T12:32:23;10.70;98.20
59881;DHT22;45751;51.380;10.326;2023-04-29T12:34:51;10.70;98.30
59881;DHT22;45751;51.380;10.326;2023-04-29T12:37:20;10.70;98.20
59881;DHT22;45751;51.380;10.326;2023-04-29T12:39:49;10.70;98.00
59881;DHT22;45751;51.380;10.326;2023-04-29T12:42:16;10.80;97.90
59881;DHT22;45751;51.380;10.326;2023-04-29T12:44:47;10.80;97.50
59881;DHT22;45751;51.380;10.326;2023-04-29T12:47:15;10.80;97.20
59881;DHT22;45751;51.380;10.326;2023-04-29T12:49:46;10.90;97.50
59881;DHT22;45751;51.380;10.326;2023-04-29T12:52:13;10.90;97.80
59881;DHT22;45751;51.380;10.326;2023-04-29T12:54:41;11.00;97.30
59881;DHT22;45751;51.380;10.326;2023-04-29T12:57:10;11.00;96.30
59881;DHT22;45751;51.380;10.326;2023-04-29T12:59:37;11.10;96.50
59881;DHT22;45751;51.380;10.326;2023-04-29T13:02:06;11.10;96.10
59881;DHT22;45751;51.380;10.326;2023-04-29T13:04:33;11.10;95.80
59881;DHT22;45751;51.380;10.326;2023-04-29T13:07:00;11.20;94.90
59881;DHT22;45751;51.380;10.326;2023-04-29T13:09:28;11.20;94.80
59881;DHT22;45751;51.380;10.326;2023-04-29T13:11:56;11.20;94.90
59881;DHT22;45751;51.380;10.326;2023-04-29T13:14:23;11.30;95.20
59881;DHT22;45751;51.380;10.326;2023-04-29T13:16:50;11.30;95.00
59881;DHT22;45751;51.380;10.326;2023-04-29T13:19:17;11.30;95.30
59881;DHT22;45751;51.380;10.326;2023-04-29T13:22:04;11.30;95.00
59881;DHT22;45751;51.380;10.326;2023-04-29T13:24:30;11.40;95.30
59881;DHT22;45751;51.380;10.326;2023-04-29T13:26:58;11.40;95.70
59881;DHT22;45751;51.380;10.326;2023-04-29T13:29:25;11.30;94.50
59881;DHT22;45751;51.380;10.326;2023-04-29T13:31:52;11.30;94.60
59881;DHT22;45751;51.380;10.326;2023-04-29T13:34:19;11.40;94.30
59881;DHT22;45751;51.380;10.326;2023-04-29T13:36:47;11.40;94.80
59881;DHT22;45751;51.380;10.326;2023-04-29T13:39:14;11.30;94.70
59881;DHT22;45751;51.380;10.326;2023-04-29T13:41:41;11.40;93.90
59881;DHT22;45751;51.380;10.326;2023-04-29T13:44:12;11.40;93.70
59881;DHT22;45751;51.380;10.326;2023-04-29T13:46:54;11.40;93.50
59881;DHT22;45751;51.380;10.326;2023-04-29T13:49:21;11.40;92.70
59881;DHT22;45751;51.380;10.326;2023-04-29T13:52:09;11.40;91.50
59881;DHT22;45751;51.380;10.326;2023-04-29T13:54:39;11.40;91.20
59881;DHT22;45751;51.380;10.326;2023-04-29T13:57:08;11.30;91.50
59881;DHT22;45751;51.380;10.326;2023-04-29T13:59:38;11.30;91.60
59881;DHT22;45751;51.380;10.326;2023-04-29T14:02:22;11.30;92.00
59881;DHT22;45751;51.380;10.326;2023-04-29T14:04:52;11.20;92.10
59881;DHT22;45751;51.380;10.326;2023-04-29T14:07:20;11.20;92.40
59881;DHT22;45751;51.380;10.326;2023-04-29T14:09:48;11.20;92.40
59881;DHT22;45751;51.380;10.326;2023-04-29T14:12:15;11.20;92.70
59881;DHT22;45751;51.380;10.326;2023-04-29T14:14:41;11.20;93.20
59881;DHT22;45751;51.380;10.326;2023-04-29T14:17:08;11.20;93.20
59881;DHT22;45751;51.380;10.326;2023-04-29T14:19:35;11.20;93.40
59881;DHT22;45751;51.380;10.326;2023-04-29T14:22:02;11.20;92.30
59881;DHT22;45751;51.380;10.326;2023-04-29T14:24:29;11.20;91.30
59881;DHT22;45751;51.380;10.326;2023-04-29T14:26:56;11.20;91.40
59881;DHT22;45751;51.380;10.326;2023-04-29T14:29:23;11.20;90.90
59881;DHT22;45751;51.380;10.326;2023-04-29T14:31:50;11.20;90.70
59881;DHT22;45751;51.380;10.326;2023-04-29T14:34:17;11.20;90.90
59881;DHT22;45751;51.380;10.326;2023-04-29T14:36:45;11.30;90.40
59881;DHT22;45751;51.380;10.326;2023-04-29T14:39:12;11.30;89.90
59881;DHT22;45751;51.380;10.326;2023-04-29T14:41:39;11.20;89.00
59881;DHT22;45751;51.380;10.326;2023-04-29T14:44:06;11.30;85.70
59881;DHT22;45751;51.380;10.326;2023-04-29T14:46:33;11.30;86.00
59881;DHT22;45751;51.380;10.326;2023-04-29T14:48:59;11.30;84.90
59881;DHT22;45751;51.380;10.326;2023-04-29T14:51:27;11.30;85.60
59881;DHT22;45751;51.380;10.326;2023-04-29T14:53:54;11.30;85.30
59881;DHT22;45751;51.380;10.326;2023-04-29T14:56:21;11.30;85.60
59881;DHT22;45751;51.380;10.326;2023-04-29T14:58:48;11.30;86.40
59881;DHT22;45751;51.380;10.326;2023-04-29T15:01:15;11.30;85.50
59881;DHT22;45751;51.380;10.326;2023-04-29T15:03:42;11.30;86.70
59881;DHT22;45751;51.380;10.326;2023-04-29T15:06:11;11.30;86.20
59881;DHT22;45751;51.380;10.326;2023-04-29T15:08:38;11.30;86.90
59881;DHT22;45751;51.380;10.326;2023-04-29T15:11:05;11.30;88.00
59881;DHT22;45751;51.380;10.326;2023-04-29T15:13:32;11.40;89.70
59881;DHT22;45751;51.380;10.326;2023-04-29T15:15:59;11.40;89.70
59881;DHT22;45751;51.380;10.326;2023-04-29T15:18:26;11.40;90.00
59881;DHT22;45751;51.380;10.326;2023-04-29T15:20:53;11.40;90.30
59881;DHT22;45751;51.380;10.326;2023-04-29T15:23:20;11.40;89.30
59881;DHT22;45751;51.380;10.326;2023-04-29T15:25:47;11.40;89.00
59881;DHT22;45751;51.380;10.326;2023-04-29T15:28:13;11.30;89.20
59881;DHT22;45751;51.380;10.326;2023-04-29T15:30:40;11.30;89.50
59881;DHT22;45751;51.380;10.326;2023-04-29T15:33:07;11.30;89.70
59881;DHT22;45751;51.380;10.326;2023-04-29T15:35:35;11.30;90.00
59881;DHT22;45751;51.380;10.326;2023-04-29T15:38:02;11.30;90.20
59881;DHT22;45751;51.380;10.326;2023-04-29T15:40:29;11.30;90.30
59881;DHT22;45751;51.380;10.326;2023-04-29T15:42:56;11.20;90.40
59881;DHT22;45751;51.380;10.326;2023-04-29T15:45:24;11.30;90.00
59881;DHT22;45751;51.380;10.326;2023-04-29T15:47:50;11.30;90.20
59881;DHT22;45751;51.380;10.326;2023-04-29T15:50:17;11.30;90.50
59881;DHT22;45751;51.380;10.326;2023-04-29T15:52:44;11.30;91.00
59881;DHT22;45751;51.380;10.326;2023-04-29T15:55:12;11.30;91.10